createdAt,value
2022-11-12T00:01:10.697Z,11.02
2022-11-12T00:03:38.295Z,12.52
2022-11-12T00:06:05.478Z,12.32
2022-11-12T00:08:32.737Z,11.60
2022-11-12T00:10:59.790Z,10.30
2022-11-12T00:13:26.870Z,10.15
2022-11-12T00:15:54.065Z,13.75
2022-11-12T00:18:21.375Z,11.77
2022-11-12T00:20:48.472Z,15.35
2022-11-12T00:23:15.740Z,10.68
2022-11-12T00:25:42.840Z,12.80
2022-11-12T00:28:11.261Z,11.73
2022-11-12T00:30:41.081Z,10.48
2022-11-12T00:33:08.398Z,10.93
2022-11-12T00:35:35.884Z,14.23
2022-11-12T00:38:03.139Z,13.50
2022-11-12T00:40:30.664Z,13.40
2022-11-12T00:42:58.089Z,11.88
2022-11-12T00:45:25.579Z,12.43
2022-11-12T00:47:57.327Z,14.00
2022-11-12T00:50:25.143Z,18.65
2022-11-12T00:52:54.130Z,17.15
2022-11-12T00:55:23.922Z,17.83
2022-11-12T00:57:51.151Z,18.88
2022-11-12T01:00:19.473Z,21.15
2022-11-12T01:02:51.025Z,18.98
2022-11-12T01:05:19.819Z,21.35
2022-11-12T01:07:56.047Z,23.38
2022-11-12T01:10:23.588Z,24.85
2022-11-12T01:12:52.934Z,25.90
2022-11-12T01:15:19.945Z,25.08
2022-11-12T01:17:47.121Z,25.10
2022-11-12T01:20:16.343Z,23.25
2022-11-12T01:22:43.760Z,23.00
2022-11-12T01:25:13.378Z,26.50
2022-11-12T01:27:42.928Z,27.58
2022-11-12T01:30:10.955Z,25.67
2022-11-12T01:32:38.105Z,27.33
2022-11-12T01:35:05.992Z,23.98
2022-11-12T01:37:33.046Z,30.95
2022-11-12T01:40:00.259Z,26.02
2022-11-12T01:42:34.528Z,28.92
2022-11-12T01:45:01.569Z,29.67
2022-11-12T01:47:34.155Z,27.98
2022-11-12T01:50:16.507Z,32.38
2022-11-12T01:55:27.627Z,25.88
2022-11-12T01:58:11.669Z,26.33
2022-11-12T02:00:40.745Z,25.38
2022-11-12T02:03:29.831Z,24.25
2022-11-12T02:06:09.710Z,29.40
2022-11-12T02:08:40.154Z,28.20
2022-11-12T02:11:20.468Z,26.80
2022-11-12T02:14:03.678Z,32.13
2022-11-12T02:16:42.136Z,21.88
2022-11-12T02:19:13.535Z,23.08
2022-11-12T02:21:40.691Z,24.20
2022-11-12T02:24:27.571Z,26.92
2022-11-12T02:26:56.084Z,25.65
2022-11-12T02:29:23.621Z,26.92
2022-11-12T02:31:50.795Z,25.27
2022-11-12T02:34:17.955Z,23.90
2022-11-12T02:36:47.294Z,23.33
2022-11-12T02:39:14.336Z,22.50
2022-11-12T02:41:41.504Z,22.05
2022-11-12T02:44:08.610Z,30.08
2022-11-12T02:46:35.636Z,20.70
2022-11-12T02:49:02.673Z,18.10
2022-11-12T02:51:31.510Z,17.80
2022-11-12T02:53:58.749Z,18.83
2022-11-12T02:56:25.967Z,16.63
2022-11-12T02:58:53.065Z,15.75
2022-11-12T03:01:20.284Z,19.42
2022-11-12T03:03:47.514Z,17.35
2022-11-12T03:06:14.618Z,18.40
2022-11-12T03:08:44.135Z,15.07
2022-11-12T03:11:14.975Z,16.23
2022-11-12T03:13:42.540Z,15.02
2022-11-12T03:16:10.090Z,15.32
2022-11-12T03:18:37.942Z,17.60
2022-11-12T03:21:05.959Z,14.88
2022-11-12T03:23:33.090Z,14.15
2022-11-12T03:26:04.438Z,15.65
2022-11-12T03:28:32.101Z,14.23
2022-11-12T03:31:00.647Z,15.18
2022-11-12T03:33:28.033Z,15.52
2022-11-12T03:35:55.273Z,15.13
2022-11-12T03:38:25.018Z,12.48
2022-11-12T03:40:52.287Z,16.48
2022-11-12T03:43:19.299Z,14.27
2022-11-12T03:45:51.765Z,13.32
2022-11-12T03:48:18.885Z,16.05
2022-11-12T03:50:45.982Z,10.70
2022-11-12T03:53:13.254Z,14.00
2022-11-12T03:55:42.741Z,13.43
2022-11-12T03:58:09.867Z,14.10
2022-11-12T04:00:36.885Z,13.93
2022-11-12T04:03:03.944Z,14.63
2022-11-12T04:05:49.254Z,13.38
2022-11-12T04:08:36.311Z,19.33
2022-11-12T04:11:14.051Z,14.70
2022-11-12T04:13:43.254Z,15.90
2022-11-12T04:16:32.894Z,14.75
2022-11-12T04:19:20.802Z,13.25
2022-11-12T04:21:55.628Z,14.68
2022-11-12T04:25:00.852Z,15.20
2022-11-12T04:27:34.429Z,10.98
2022-11-12T04:30:16.920Z,11.02
2022-11-12T04:35:18.960Z,12.40
2022-11-12T04:37:46.269Z,13.35
2022-11-12T04:40:43.373Z,10.93
2022-11-12T04:43:33.383Z,9.70
2022-11-12T04:46:02.579Z,9.80
2022-11-12T04:48:30.780Z,11.93
2022-11-12T04:51:27.850Z,11.75
2022-11-12T04:53:54.990Z,10.82
2022-11-12T04:56:22.099Z,11.38
2022-11-12T04:58:49.243Z,11.50
2022-11-12T05:01:16.302Z,9.65
2022-11-12T05:03:43.564Z,10.18
2022-11-12T05:06:29.332Z,12.23
2022-11-12T05:08:56.740Z,10.15
2022-11-12T05:11:23.835Z,11.80
2022-11-12T05:13:50.999Z,13.27
2022-11-12T05:16:18.085Z,8.27
2022-11-12T05:18:45.142Z,11.02
2022-11-12T05:21:30.518Z,10.02
2022-11-12T05:23:57.649Z,10.93
2022-11-12T05:26:24.694Z,8.32
2022-11-12T05:28:54.114Z,10.73
2022-11-12T05:31:21.175Z,12.85
2022-11-12T05:33:48.254Z,10.95
2022-11-12T05:36:15.357Z,11.88
2022-11-12T05:38:44.525Z,11.18
2022-11-12T05:41:15.978Z,10.50
2022-11-12T05:43:45.881Z,12.98
2022-11-12T05:46:13.056Z,10.40
2022-11-12T05:48:40.123Z,12.02
2022-11-12T05:51:12.890Z,10.05
2022-11-12T05:53:42.555Z,9.98
2022-11-12T05:56:10.922Z,10.82
2022-11-12T05:58:38.808Z,16.75
2022-11-12T06:01:06.223Z,11.10
2022-11-12T06:03:33.472Z,12.73
2022-11-12T06:06:00.778Z,12.68
2022-11-12T06:08:28.936Z,14.13
2022-11-12T06:10:58.816Z,17.67
2022-11-12T06:13:26.748Z,15.27
2022-11-12T06:15:55.508Z,15.80
2022-11-12T06:18:24.043Z,13.90
2022-11-12T06:21:10.322Z,10.90
2022-11-12T06:23:42.982Z,15.23
2022-11-12T06:26:10.013Z,13.75
2022-11-12T06:28:39.807Z,13.43
2022-11-12T06:31:07.096Z,12.57
2022-11-12T06:33:34.269Z,13.25
2022-11-12T06:36:04.762Z,11.10
2022-11-12T06:38:38.256Z,10.23
2022-11-12T06:41:06.782Z,13.27
2022-11-12T06:43:34.921Z,12.10
2022-11-12T06:46:08.096Z,10.38
2022-11-12T06:48:35.334Z,10.40
2022-11-12T06:51:20.954Z,12.65
2022-11-12T06:53:51.941Z,9.30
2022-11-12T06:56:19.131Z,11.15
2022-11-12T06:58:46.254Z,10.48
2022-11-12T07:01:17.119Z,14.18
2022-11-12T07:03:44.863Z,11.70
2022-11-12T07:06:15.416Z,15.50
2022-11-12T07:08:42.887Z,11.27
2022-11-12T07:11:11.274Z,13.00
2022-11-12T07:13:39.147Z,12.35
2022-11-12T07:16:08.255Z,11.10
2022-11-12T07:18:38.265Z,15.70
2022-11-12T07:21:08.124Z,10.25
2022-11-12T07:23:36.982Z,16.00
2022-11-12T07:26:15.441Z,11.82
2022-11-12T07:28:43.044Z,13.40
2022-11-12T07:31:15.572Z,12.55
2022-11-12T07:33:44.380Z,13.90
2022-11-12T07:36:15.664Z,14.15
2022-11-12T07:38:44.004Z,14.77
2022-11-12T07:41:14.351Z,18.30
2022-11-12T07:43:43.789Z,15.30
2022-11-12T07:46:18.883Z,18.10
2022-11-12T07:48:46.939Z,17.45
2022-11-12T07:51:17.120Z,15.65
2022-11-12T07:53:45.391Z,16.60
2022-11-12T07:56:19.623Z,19.35
2022-11-12T07:58:47.998Z,16.55
2022-11-12T08:01:32.041Z,15.60
2022-11-12T08:04:05.859Z,18.10
2022-11-12T08:06:33.686Z,17.38
2022-11-12T08:09:04.815Z,19.88
2022-11-12T08:11:37.414Z,21.20
2022-11-12T08:14:05.354Z,19.52
2022-11-12T08:16:33.039Z,19.75
2022-11-12T08:19:01.360Z,19.00
2022-11-12T08:21:28.469Z,19.48
2022-11-12T08:23:55.576Z,17.60
2022-11-12T08:26:22.699Z,23.00
2022-11-12T08:28:50.087Z,20.45
2022-11-12T08:31:21.256Z,17.65
2022-11-12T08:33:49.081Z,19.92
2022-11-12T08:36:18.320Z,18.08
2022-11-12T08:38:46.172Z,17.10
2022-11-12T08:41:15.653Z,17.15
2022-11-12T08:43:43.333Z,18.52
2022-11-12T08:46:10.690Z,15.52
2022-11-12T08:48:40.056Z,19.75
2022-11-12T08:51:08.209Z,23.23
2022-11-12T08:53:35.710Z,24.23
2022-11-12T08:56:05.304Z,17.52
2022-11-12T08:58:34.728Z,17.48
2022-11-12T09:01:08.730Z,21.77
2022-11-12T09:03:36.405Z,18.73
2022-11-12T09:06:05.233Z,23.42
2022-11-12T09:08:35.001Z,17.58
2022-11-12T09:11:02.136Z,16.48
2022-11-12T09:13:29.326Z,22.05
2022-11-12T09:16:05.030Z,25.67
2022-11-12T09:18:36.057Z,20.67
2022-11-12T09:21:10.544Z,17.58
2022-11-12T09:23:40.077Z,19.33
2022-11-12T09:26:07.529Z,21.45
2022-11-12T09:28:35.683Z,24.30
2022-11-12T09:31:03.070Z,22.80
2022-11-12T09:33:33.814Z,18.02
2022-11-12T09:36:02.789Z,23.27
2022-11-12T09:38:31.209Z,20.13
2022-11-12T09:41:34.807Z,18.08
2022-11-12T09:44:12.623Z,17.67
2022-11-12T09:46:55.252Z,17.63
2022-11-12T09:49:36.738Z,19.40
2022-11-12T09:52:13.551Z,16.70
2022-11-12T09:54:42.521Z,18.60
2022-11-12T09:57:12.758Z,18.95
2022-11-12T09:59:42.809Z,20.77
2022-11-12T10:02:26.270Z,18.80
2022-11-12T10:05:13.610Z,20.25
2022-11-12T10:07:49.933Z,22.38
2022-11-12T10:10:41.257Z,16.10
2022-11-12T10:13:54.972Z,19.02
2022-11-12T10:17:01.035Z,26.25
2022-11-12T10:19:53.667Z,17.27
2022-11-12T10:25:20.314Z,17.60
2022-11-12T10:27:49.879Z,19.75
2022-11-12T10:30:21.958Z,16.80
2022-11-12T10:32:51.077Z,12.48
2022-11-12T10:35:22.202Z,17.38
2022-11-12T10:38:15.787Z,18.63
2022-11-12T10:40:43.331Z,22.13
2022-11-12T10:43:16.437Z,16.40
2022-11-12T10:45:45.731Z,15.18
2022-11-12T10:48:53.285Z,15.65
2022-11-12T10:51:38.198Z,13.60
2022-11-12T10:54:37.389Z,14.93
2022-11-12T10:57:25.821Z,15.18
2022-11-12T11:00:12.386Z,14.55
2022-11-12T11:02:52.341Z,15.07
2022-11-12T11:05:36.978Z,16.48
2022-11-12T11:08:05.695Z,18.70
2022-11-12T11:10:36.081Z,13.88
2022-11-12T11:13:21.036Z,18.40
2022-11-12T11:16:01.652Z,18.70
2022-11-12T11:18:31.307Z,17.35
2022-11-12T11:21:32.213Z,17.63
2022-11-12T11:24:42.975Z,18.67
2022-11-12T11:27:58.474Z,16.42
2022-11-12T11:30:25.757Z,16.33
2022-11-12T11:33:53.481Z,17.83
2022-11-12T11:37:07.237Z,18.48
2022-11-12T11:39:43.186Z,15.15
2022-11-12T11:42:57.435Z,17.63
2022-11-12T11:46:03.731Z,17.92
2022-11-12T11:48:47.562Z,14.38
2022-11-12T11:51:29.115Z,14.13
2022-11-12T11:53:59.113Z,18.63
2022-11-12T11:56:34.091Z,14.82
2022-11-12T11:59:08.245Z,13.38
2022-11-12T12:02:18.882Z,13.73
2022-11-12T12:04:48.582Z,13.25
2022-11-12T12:07:22.739Z,12.73
2022-11-12T12:10:02.452Z,13.18
2022-11-12T12:12:55.963Z,11.75
2022-11-12T12:16:12.950Z,12.10
2022-11-12T12:19:27.813Z,11.75
2022-11-12T12:21:58.466Z,15.18
2022-11-12T12:24:32.535Z,11.82
2022-11-12T12:27:15.647Z,15.77
2022-11-12T12:30:23.076Z,13.63
2022-11-12T12:33:17.789Z,12.10
2022-11-12T12:36:12.974Z,13.90
2022-11-12T12:38:56.137Z,11.25
2022-11-12T12:41:43.465Z,16.38
2022-11-12T12:44:11.824Z,15.55
2022-11-12T12:46:47.780Z,12.85
2022-11-12T12:49:25.977Z,17.35
2022-11-12T12:51:55.818Z,15.85
2022-11-12T12:54:35.328Z,13.02
2022-11-12T12:57:05.009Z,13.07
2022-11-12T12:59:32.626Z,11.10
2022-11-12T13:02:02.913Z,12.73
2022-11-12T13:04:58.622Z,12.15
2022-11-12T13:07:43.381Z,14.60
2022-11-12T13:10:41.535Z,14.57
2022-11-12T13:13:09.950Z,13.23
2022-11-12T13:15:49.721Z,11.45
2022-11-12T13:18:38.579Z,14.30
2022-11-12T13:21:21.330Z,15.98
2022-11-12T13:24:06.782Z,11.60
2022-11-12T13:26:40.097Z,11.05
2022-11-12T13:29:27.940Z,13.43
2022-11-12T13:32:32.595Z,16.65
2022-11-12T13:35:26.178Z,17.75
2022-11-12T13:38:13.401Z,14.68
2022-11-12T13:41:06.410Z,17.13
2022-11-12T13:43:47.279Z,14.82
2022-11-12T13:46:46.345Z,13.95
2022-11-12T13:49:18.005Z,12.98
2022-11-12T13:51:52.250Z,12.55
2022-11-12T13:54:36.762Z,18.73
2022-11-12T13:57:19.954Z,13.82
2022-11-12T13:59:47.824Z,13.52
2022-11-12T14:02:26.316Z,13.52
2022-11-12T14:04:57.342Z,14.07
2022-11-12T14:07:31.955Z,14.18
2022-11-12T14:10:34.150Z,13.60
2022-11-12T14:13:32.110Z,19.45
2022-11-12T14:16:46.555Z,16.67
2022-11-12T14:19:34.663Z,13.70
2022-11-12T14:22:20.238Z,14.35
2022-11-12T14:24:54.902Z,17.80
2022-11-12T14:27:43.915Z,15.55
2022-11-12T14:30:33.583Z,16.73
2022-11-12T14:33:09.236Z,20.27
2022-11-12T14:35:39.878Z,21.98
2022-11-12T14:38:12.573Z,17.83
2022-11-12T14:40:55.027Z,17.15
2022-11-12T14:46:04.184Z,17.45
2022-11-12T14:48:50.099Z,21.05
2022-11-12T14:51:18.026Z,19.63
2022-11-12T14:54:00.199Z,18.73
2022-11-12T14:56:43.411Z,19.52
2022-11-12T14:59:17.431Z,16.30
2022-11-12T15:04:59.313Z,20.60
2022-11-12T15:07:50.322Z,15.73
2022-11-12T15:10:38.809Z,19.48
2022-11-12T15:13:14.725Z,19.85
2022-11-12T15:16:04.752Z,13.98
2022-11-12T15:18:34.708Z,15.38
2022-11-12T15:21:24.010Z,22.67
2022-11-12T15:24:01.948Z,17.48
2022-11-12T15:26:42.061Z,23.17
2022-11-12T15:29:33.735Z,17.42
2022-11-12T15:32:02.500Z,15.30
2022-11-12T15:34:40.028Z,16.55
2022-11-12T15:37:21.244Z,18.83
2022-11-12T15:40:00.856Z,19.95
2022-11-12T15:42:37.589Z,18.92
2022-11-12T15:45:10.111Z,15.70
2022-11-12T15:47:37.135Z,23.45
2022-11-12T15:50:25.543Z,18.17
2022-11-12T15:52:52.658Z,24.00
2022-11-12T15:55:19.844Z,24.27
2022-11-12T15:57:51.155Z,19.67
2022-11-12T16:00:24.201Z,26.37
2022-11-12T16:03:19.407Z,19.55
2022-11-12T16:05:47.041Z,19.05
2022-11-12T16:08:14.622Z,17.55
2022-11-12T16:10:43.528Z,19.42
2022-11-12T16:13:28.658Z,20.30
2022-11-12T16:15:56.351Z,21.98
2022-11-12T16:18:23.468Z,21.20
2022-11-12T16:20:50.577Z,25.15
2022-11-12T16:23:17.631Z,30.25
2022-11-12T16:25:45.264Z,28.60
2022-11-12T16:28:18.355Z,25.80
2022-11-12T16:30:50.700Z,31.50
2022-11-12T16:33:17.976Z,31.15
2022-11-12T16:35:45.210Z,32.80
2022-11-12T16:38:19.480Z,31.05
2022-11-12T16:40:46.715Z,25.33
2022-11-12T16:43:16.011Z,32.80
2022-11-12T16:45:45.273Z,24.63
2022-11-12T16:48:22.360Z,26.13
2022-11-12T16:50:49.858Z,23.75
2022-11-12T16:53:17.005Z,29.77
2022-11-12T16:55:44.745Z,30.38
2022-11-12T16:58:15.469Z,28.88
2022-11-12T17:00:50.227Z,24.08
2022-11-12T17:03:17.330Z,20.45
2022-11-12T17:05:44.364Z,26.58
2022-11-12T17:08:11.504Z,25.63
2022-11-12T17:10:41.623Z,23.52
2022-11-12T17:13:13.481Z,22.15
2022-11-12T17:15:40.967Z,25.13
2022-11-12T17:18:08.600Z,24.10
2022-11-12T17:20:35.802Z,34.85
2022-11-12T17:23:05.415Z,29.90
2022-11-12T17:25:32.468Z,23.58
2022-11-12T17:27:59.730Z,25.15
2022-11-12T17:30:26.772Z,27.95
2022-11-12T17:32:54.012Z,29.95
2022-11-12T17:35:21.062Z,27.20
2022-11-12T17:37:48.102Z,27.38
2022-11-12T17:40:15.723Z,25.90
2022-11-12T17:42:42.776Z,25.25
2022-11-12T17:45:10.136Z,26.40
2022-11-12T17:47:40.473Z,25.33
2022-11-12T17:50:08.445Z,31.05
2022-11-12T17:52:35.500Z,25.40
2022-11-12T17:55:05.669Z,31.08
2022-11-12T17:57:32.653Z,28.50
2022-11-12T17:59:59.823Z,33.22
2022-11-12T18:02:26.946Z,27.05
2022-11-12T18:04:53.996Z,36.56
2022-11-12T18:07:21.100Z,31.83
2022-11-12T18:09:48.728Z,26.50
2022-11-12T18:12:18.790Z,26.58
2022-11-12T18:14:46.326Z,31.17
2022-11-12T18:17:16.418Z,35.10
2022-11-12T18:19:44.300Z,30.80
2022-11-12T18:22:14.639Z,31.92
2022-11-12T18:24:45.412Z,33.90
2022-11-12T18:27:12.555Z,37.33
2022-11-12T18:29:41.643Z,36.13
2022-11-12T18:32:08.858Z,35.92
2022-11-12T18:34:38.205Z,34.70
2022-11-12T18:37:05.340Z,35.15
2022-11-12T18:39:32.614Z,34.88
2022-11-12T18:41:59.608Z,42.45
2022-11-12T18:44:26.947Z,39.70
2022-11-12T18:46:56.401Z,37.08
2022-11-12T18:49:23.693Z,35.72
2022-11-12T18:51:53.162Z,39.70
2022-11-12T18:54:20.207Z,39.05
2022-11-12T18:56:48.054Z,36.42
2022-11-12T18:59:16.425Z,33.22
2022-11-12T19:01:43.726Z,36.17
2022-11-12T19:04:12.948Z,37.25
2022-11-12T19:06:40.197Z,40.15
2022-11-12T19:09:11.502Z,41.50
2022-11-12T19:11:38.743Z,36.47
2022-11-12T19:14:05.846Z,35.63
2022-11-12T19:16:32.930Z,34.10
2022-11-12T19:18:59.977Z,34.28
2022-11-12T19:21:27.921Z,39.35
2022-11-12T19:23:56.305Z,37.90
2022-11-12T19:26:25.892Z,37.92
2022-11-12T19:28:55.935Z,34.90
2022-11-12T19:31:26.597Z,32.47
2022-11-12T19:33:54.434Z,32.45
2022-11-12T19:36:26.291Z,30.95
2022-11-12T19:39:02.504Z,35.72
2022-11-12T19:41:29.824Z,33.42
2022-11-12T19:43:56.871Z,33.08
2022-11-12T19:46:23.984Z,32.40
2022-11-12T19:48:51.903Z,31.35
2022-11-12T19:51:18.940Z,33.72
2022-11-12T19:53:46.224Z,31.88
2022-11-12T19:56:17.475Z,32.58
2022-11-12T19:58:46.300Z,31.45
2022-11-12T20:01:17.410Z,34.10
2022-11-12T20:03:45.087Z,37.22
2022-11-12T20:06:21.389Z,30.05
2022-11-12T20:08:51.048Z,32.33
2022-11-12T20:11:20.564Z,31.52
2022-11-12T20:13:51.998Z,33.50
2022-11-12T20:16:24.883Z,28.63
2022-11-12T20:18:55.557Z,34.85
2022-11-12T20:21:24.057Z,29.27
2022-11-12T20:23:53.840Z,35.08
2022-11-12T20:26:21.042Z,36.97
2022-11-12T20:28:48.438Z,35.08
2022-11-12T20:31:20.905Z,33.15
2022-11-12T20:33:50.650Z,32.33
2022-11-12T20:36:22.602Z,31.85
2022-11-12T20:38:50.717Z,31.75
2022-11-12T20:41:26.462Z,36.60
2022-11-12T20:43:55.553Z,37.10
2022-11-12T20:46:23.031Z,44.05
2022-11-12T20:48:50.176Z,34.00
2022-11-12T20:51:25.485Z,42.15
2022-11-12T20:54:00.217Z,41.15
2022-11-12T20:56:30.705Z,37.85
2022-11-12T20:58:59.363Z,37.17
2022-11-12T21:01:28.732Z,38.50
2022-11-12T21:03:57.494Z,35.85
2022-11-12T21:06:28.189Z,33.60
2022-11-12T21:08:58.543Z,35.40
2022-11-12T21:11:25.677Z,33.15
2022-11-12T21:13:52.760Z,34.45
2022-11-12T21:16:20.017Z,35.05
2022-11-12T21:18:47.335Z,36.50
2022-11-12T21:21:18.411Z,33.67
2022-11-12T21:23:47.434Z,39.53
2022-11-12T21:26:20.513Z,33.85
2022-11-12T21:28:55.659Z,36.22
2022-11-12T21:31:28.167Z,34.30
2022-11-12T21:34:00.698Z,37.72
2022-11-12T21:36:29.689Z,32.92
2022-11-12T21:38:57.390Z,29.65
2022-11-12T21:41:27.971Z,29.52
2022-11-12T21:43:58.177Z,27.85
2022-11-12T21:46:30.845Z,34.17
2022-11-12T21:48:59.277Z,26.33
2022-11-12T21:51:32.928Z,29.80
2022-11-12T21:54:01.555Z,31.17
2022-11-12T21:56:29.979Z,27.88
2022-11-12T21:59:01.588Z,32.92
2022-11-12T22:01:32.273Z,29.92
2022-11-12T22:03:59.906Z,27.98
2022-11-12T22:06:29.686Z,26.65
2022-11-12T22:08:58.143Z,27.42
2022-11-12T22:11:27.928Z,31.42
2022-11-12T22:13:57.381Z,29.90
2022-11-12T22:16:27.713Z,26.15
2022-11-12T22:18:56.856Z,27.73
2022-11-12T22:21:27.978Z,31.60
2022-11-12T22:23:57.087Z,24.67
2022-11-12T22:26:27.481Z,27.83
2022-11-12T22:28:59.997Z,25.23
2022-11-12T22:31:32.772Z,29.70
2022-11-12T22:34:02.002Z,29.48
2022-11-12T22:36:40.064Z,23.73
2022-11-12T22:39:07.421Z,34.45
2022-11-12T22:41:34.576Z,28.88
2022-11-12T22:44:03.236Z,30.88
2022-11-12T22:46:39.108Z,26.75
2022-11-12T22:49:06.574Z,29.98
2022-11-12T22:51:34.721Z,24.15
2022-11-12T22:54:05.911Z,26.80
2022-11-12T22:56:36.184Z,28.85
2022-11-12T22:59:04.926Z,29.48
2022-11-12T23:01:35.503Z,35.05
2022-11-12T23:04:06.237Z,28.67
2022-11-12T23:06:33.715Z,34.30
2022-11-12T23:09:01.568Z,30.05
2022-11-12T23:11:30.100Z,29.63
2022-11-12T23:13:57.625Z,29.27
2022-11-12T23:16:30.778Z,32.25
2022-11-12T23:18:58.480Z,28.23
2022-11-12T23:21:29.269Z,34.00
2022-11-12T23:23:58.427Z,36.45
2022-11-12T23:26:28.835Z,37.35
2022-11-12T23:28:55.937Z,37.35
2022-11-12T23:31:30.320Z,35.92
2022-11-12T23:34:00.323Z,32.33
2022-11-12T23:36:28.529Z,37.08
2022-11-12T23:38:56.871Z,31.63
2022-11-12T23:41:27.929Z,36.47
2022-11-12T23:43:56.853Z,41.20
2022-11-12T23:46:24.768Z,40.22
2022-11-12T23:48:51.898Z,39.83
2022-11-12T23:51:23.340Z,37.70
2022-11-12T23:53:50.563Z,36.13
2022-11-12T23:56:19.927Z,39.28
2022-11-12T23:58:47.360Z,37.58
